15:19
Airports
History
Links
Donate
Help keep this website running!
PayPal
Bitcoin
This page is community maintained. The information is intended for PC simulator navigation or reference.
Always use approved charts for navigation.
SNOZ
CORONEL ALEXANDRE RAPOSO
CORONEL ALEXANDRE RAPOSO (SNOZ)
Paço do Lumiar, Maranhão, Brazil (65130)
(C)
Lat/Lng:2° 31' 15.5" S / 44° 7' 16.8" W
-2.520973 / -44.121334
Elevation:154'ft / 47mMSL
ID / ICAO:SNOZ
Runways:1
Longest:09-27
Asphalt 998m / 3,274ft
Controlled:Yes
Nearby Weather15:00 GMT 2017-11-20
Nearby weather at SBSL, Marechal Cunha Machado located 9.2 nautical miles from SNOZ
Altimeter: 29.83
Visibility: 6.2 statute miles
Wind: 12 knots (from 050°)
Temp: 30°c / 86°f
Humidity: 62.3%

METAR: SBSL 201500Z 05012KT 9999 BKN017 30/22 Q1010

(Powered by phpweather)
Airport Radio Frequencies
Tower: 118.7
Runway 09 / 27
Dimensions:997.8 x 29.9m 3274' x 98'ft
Surface:Asphalt
Runway 09 [A]Runway 27 [B]
Heading:054°TH 234°TH
Lat:
Lng:
2° 31' 24.84"S
44° 7' 30.06"W
2° 31' 6.16"S
44° 7' 3.54"W
User Notes and Comments
2° 31' 15.5" S / 44° 7' 16.8" W
Distance To
Airport ID:
Nearby Airports
(U) CAVU - Clube de Aviacao Ultraleve 5.5 NM
SIPB N 357°
(C) Marechal Cunha Machado 9.2 NM
SBSL ( WX ) WSW 239°
(U) CENTRO DE LANCAMENTO DE ALCANTARA 21.6 NM
SNCW WNW 298°
(C) Guimaraes 44.9 NM
SNGM NW 310°
4 Antonio Guerreiro 46.3 NM
SNYW NW 307°
4 Sao Bento 51.5 NM
SNSB WSW 255°
(C) Pinheiro 68.0 NM
SNYE W 272°
VFR Chart
Flight Planning at SkyVector.com